sensor_id;sensor_type;location;lat;lon;timestamp;temperature;humidity
17483;DHT22;8858;52.308;20.994;2023-04-30T00:00:19;14.10;99.90
17483;DHT22;8858;52.308;20.994;2023-04-30T00:02:48;14.00;99.90
17483;DHT22;8858;52.308;20.994;2023-04-30T00:05:16;13.90;99.90
17483;DHT22;8858;52.308;20.994;2023-04-30T00:07:45;13.90;99.90
17483;DHT22;8858;52.308;20.994;2023-04-30T00:10:14;13.90;99.90
17483;DHT22;8858;52.308;20.994;2023-04-30T00:12:43;13.90;99.90
17483;DHT22;8858;52.308;20.994;2023-04-30T00:15:11;14.00;99.90
17483;DHT22;8858;52.308;20.994;2023-04-30T00:17:39;14.10;99.90
17483;DHT22;8858;52.308;20.994;2023-04-30T00:20:08;14.20;99.90
17483;DHT22;8858;52.308;20.994;2023-04-30T00:22:38;14.20;99.90
17483;DHT22;8858;52.308;20.994;2023-04-30T00:25:07;14.20;99.90
17483;DHT22;8858;52.308;20.994;2023-04-30T00:27:41;14.20;99.90
17483;DHT22;8858;52.308;20.994;2023-04-30T00:30:10;14.20;99.90
17483;DHT22;8858;52.308;20.994;2023-04-30T00:32:41;14.20;99.90
17483;DHT22;8858;52.308;20.994;2023-04-30T00:35:11;14.30;99.90
17483;DHT22;8858;52.308;20.994;2023-04-30T00:37:40;14.30;99.90
17483;DHT22;8858;52.308;20.994;2023-04-30T00:40:09;14.30;99.90
17483;DHT22;8858;52.308;20.994;2023-04-30T00:42:38;14.30;99.90
17483;DHT22;8858;52.308;20.994;2023-04-30T00:45:12;14.30;99.90
17483;DHT22;8858;52.308;20.994;2023-04-30T00:47:40;14.30;99.90
17483;DHT22;8858;52.308;20.994;2023-04-30T00:50:09;14.30;99.90
17483;DHT22;8858;52.308;20.994;2023-04-30T00:52:42;14.30;99.90
17483;DHT22;8858;52.308;20.994;2023-04-30T00:55:12;14.20;99.90
17483;DHT22;8858;52.308;20.994;2023-04-30T00:57:45;14.20;99.90
17483;DHT22;8858;52.308;20.994;2023-04-30T01:00:15;14.00;99.90
17483;DHT22;8858;52.308;20.994;2023-04-30T01:02:50;13.80;99.90
17483;DHT22;8858;52.308;20.994;2023-04-30T01:05:19;13.60;99.90
17483;DHT22;8858;52.308;20.994;2023-04-30T01:07:49;13.40;99.90
17483;DHT22;8858;52.308;20.994;2023-04-30T01:10:18;13.30;99.90
17483;DHT22;8858;52.308;20.994;2023-04-30T01:12:57;13.30;99.90
17483;DHT22;8858;52.308;20.994;2023-04-30T01:15:38;13.10;99.90
17483;DHT22;8858;52.308;20.994;2023-04-30T01:18:14;13.20;99.90
17483;DHT22;8858;52.308;20.994;2023-04-30T01:20:48;13.10;99.90
17483;DHT22;8858;52.308;20.994;2023-04-30T01:23:27;13.00;99.90
17483;DHT22;8858;52.308;20.994;2023-04-30T01:26:09;13.00;99.90
17483;DHT22;8858;52.308;20.994;2023-04-30T01:28:42;13.00;99.90
17483;DHT22;8858;52.308;20.994;2023-04-30T01:31:17;12.90;99.90
17483;DHT22;8858;52.308;20.994;2023-04-30T01:33:46;12.90;99.90
17483;DHT22;8858;52.308;20.994;2023-04-30T01:36:29;12.90;99.90
17483;DHT22;8858;52.308;20.994;2023-04-30T01:39:09;12.80;99.90
17483;DHT22;8858;52.308;20.994;2023-04-30T01:41:49;12.90;99.90
17483;DHT22;8858;52.308;20.994;2023-04-30T01:44:34;12.80;99.90
17483;DHT22;8858;52.308;20.994;2023-04-30T01:47:20;12.80;99.90
17483;DHT22;8858;52.308;20.994;2023-04-30T01:50:11;12.80;99.90
17483;DHT22;8858;52.308;20.994;2023-04-30T01:52:46;12.90;99.90
17483;DHT22;8858;52.308;20.994;2023-04-30T01:55:20;12.90;99.90
17483;DHT22;8858;52.308;20.994;2023-04-30T01:57:55;12.80;99.90
17483;DHT22;8858;52.308;20.994;2023-04-30T02:00:28;12.90;99.90
17483;DHT22;8858;52.308;20.994;2023-04-30T02:03:21;13.00;99.90
17483;DHT22;8858;52.308;20.994;2023-04-30T02:05:49;13.00;99.90
17483;DHT22;8858;52.308;20.994;2023-04-30T02:08:18;13.00;99.90
17483;DHT22;8858;52.308;20.994;2023-04-30T02:10:46;13.00;99.90
17483;DHT22;8858;52.308;20.994;2023-04-30T02:13:15;12.90;99.90
17483;DHT22;8858;52.308;20.994;2023-04-30T02:15:45;13.00;99.90
17483;DHT22;8858;52.308;20.994;2023-04-30T02:18:17;12.90;99.90
17483;DHT22;8858;52.308;20.994;2023-04-30T02:20:45;12.90;99.90
17483;DHT22;8858;52.308;20.994;2023-04-30T02:23:14;12.80;99.90
17483;DHT22;8858;52.308;20.994;2023-04-30T02:25:46;12.90;99.90
17483;DHT22;8858;52.308;20.994;2023-04-30T02:28:15;12.90;99.90
17483;DHT22;8858;52.308;20.994;2023-04-30T02:30:47;12.80;99.90
17483;DHT22;8858;52.308;20.994;2023-04-30T02:33:15;12.90;99.90
17483;DHT22;8858;52.308;20.994;2023-04-30T02:35:46;12.90;99.90
17483;DHT22;8858;52.308;20.994;2023-04-30T02:38:14;12.90;99.90
17483;DHT22;8858;52.308;20.994;2023-04-30T02:40:42;13.00;99.90
17483;DHT22;8858;52.308;20.994;2023-04-30T02:43:12;13.00;99.90
17483;DHT22;8858;52.308;20.994;2023-04-30T02:45:41;13.00;99.90
17483;DHT22;8858;52.308;20.994;2023-04-30T02:48:11;13.00;99.90
17483;DHT22;8858;52.308;20.994;2023-04-30T02:50:40;13.00;99.90
17483;DHT22;8858;52.308;20.994;2023-04-30T02:53:08;13.10;99.90
17483;DHT22;8858;52.308;20.994;2023-04-30T02:56:02;12.90;99.90
17483;DHT22;8858;52.308;20.994;2023-04-30T02:58:31;12.90;99.90
17483;DHT22;8858;52.308;20.994;2023-04-30T03:00:59;12.80;99.90
17483;DHT22;8858;52.308;20.994;2023-04-30T03:03:29;12.80;99.90
17483;DHT22;8858;52.308;20.994;2023-04-30T03:05:57;12.90;99.90
17483;DHT22;8858;52.308;20.994;2023-04-30T03:08:26;12.80;99.90
17483;DHT22;8858;52.308;20.994;2023-04-30T03:10:54;12.70;99.90
17483;DHT22;8858;52.308;20.994;2023-04-30T03:13:23;12.60;99.90
17483;DHT22;8858;52.308;20.994;2023-04-30T03:15:56;12.60;99.90
17483;DHT22;8858;52.308;20.994;2023-04-30T03:18:26;12.70;99.90
17483;DHT22;8858;52.308;20.994;2023-04-30T03:20:56;12.50;99.90
17483;DHT22;8858;52.308;20.994;2023-04-30T03:23:27;12.40;99.90
17483;DHT22;8858;52.308;20.994;2023-04-30T03:25:56;12.50;99.90
17483;DHT22;8858;52.308;20.994;2023-04-30T03:28:24;12.50;99.90
17483;DHT22;8858;52.308;20.994;2023-04-30T03:30:53;12.50;99.90
17483;DHT22;8858;52.308;20.994;2023-04-30T03:33:22;12.40;99.90
17483;DHT22;8858;52.308;20.994;2023-04-30T03:35:51;12.30;99.90
17483;DHT22;8858;52.308;20.994;2023-04-30T03:38:21;12.30;99.90
17483;DHT22;8858;52.308;20.994;2023-04-30T03:40:50;12.20;99.90
17483;DHT22;8858;52.308;20.994;2023-04-30T03:43:21;12.10;99.90
17483;DHT22;8858;52.308;20.994;2023-04-30T03:45:49;12.00;99.90
17483;DHT22;8858;52.308;20.994;2023-04-30T03:48:18;12.00;99.90
17483;DHT22;8858;52.308;20.994;2023-04-30T03:50:48;11.80;99.90
17483;DHT22;8858;52.308;20.994;2023-04-30T03:53:16;11.70;99.90
17483;DHT22;8858;52.308;20.994;2023-04-30T03:55:49;11.60;99.90
17483;DHT22;8858;52.308;20.994;2023-04-30T03:58:20;11.60;99.90
17483;DHT22;8858;52.308;20.994;2023-04-30T04:00:48;11.60;99.90
17483;DHT22;8858;52.308;20.994;2023-04-30T04:03:17;11.50;99.90
17483;DHT22;8858;52.308;20.994;2023-04-30T04:05:46;11.50;99.90
17483;DHT22;8858;52.308;20.994;2023-04-30T04:08:18;11.40;99.90
17483;DHT22;8858;52.308;20.994;2023-04-30T04:10:48;11.40;99.90
17483;DHT22;8858;52.308;20.994;2023-04-30T04:13:18;11.30;99.90
17483;DHT22;8858;52.308;20.994;2023-04-30T04:15:46;11.40;99.90
17483;DHT22;8858;52.308;20.994;2023-04-30T04:18:15;11.30;99.90
17483;DHT22;8858;52.308;20.994;2023-04-30T04:20:44;11.30;99.90
17483;DHT22;8858;52.308;20.994;2023-04-30T04:23:14;11.30;99.90
17483;DHT22;8858;52.308;20.994;2023-04-30T04:25:43;11.20;99.90
17483;DHT22;8858;52.308;20.994;2023-04-30T04:28:13;11.30;99.90
17483;DHT22;8858;52.308;20.994;2023-04-30T04:30:42;11.20;99.90
17483;DHT22;8858;52.308;20.994;2023-04-30T04:33:11;11.30;99.90
17483;DHT22;8858;52.308;20.994;2023-04-30T04:35:40;11.30;99.90
17483;DHT22;8858;52.308;20.994;2023-04-30T04:38:09;11.30;99.90
17483;DHT22;8858;52.308;20.994;2023-04-30T04:40:37;11.30;99.90
17483;DHT22;8858;52.308;20.994;2023-04-30T04:43:06;11.40;99.90
17483;DHT22;8858;52.308;20.994;2023-04-30T04:45:36;11.30;99.90
17483;DHT22;8858;52.308;20.994;2023-04-30T04:48:06;11.30;99.90
17483;DHT22;8858;52.308;20.994;2023-04-30T04:50:35;11.30;99.90
17483;DHT22;8858;52.308;20.994;2023-04-30T04:53:03;11.30;99.90
17483;DHT22;8858;52.308;20.994;2023-04-30T04:55:31;11.50;99.90
17483;DHT22;8858;52.308;20.994;2023-04-30T04:58:00;11.50;99.90
17483;DHT22;8858;52.308;20.994;2023-04-30T05:00:29;11.50;99.90
17483;DHT22;8858;52.308;20.994;2023-04-30T05:02:59;11.50;99.90
17483;DHT22;8858;52.308;20.994;2023-04-30T05:05:30;11.40;99.90
17483;DHT22;8858;52.308;20.994;2023-04-30T05:07:59;11.40;99.90
17483;DHT22;8858;52.308;20.994;2023-04-30T05:10:29;11.50;99.90
17483;DHT22;8858;52.308;20.994;2023-04-30T05:12:59;11.60;99.90
17483;DHT22;8858;52.308;20.994;2023-04-30T05:15:27;11.60;99.90
17483;DHT22;8858;52.308;20.994;2023-04-30T05:17:59;11.70;99.90
17483;DHT22;8858;52.308;20.994;2023-04-30T05:20:27;11.60;99.90
17483;DHT22;8858;52.308;20.994;2023-04-30T05:22:55;11.70;99.90
17483;DHT22;8858;52.308;20.994;2023-04-30T05:25:25;11.60;99.90
17483;DHT22;8858;52.308;20.994;2023-04-30T05:27:53;11.80;99.90
17483;DHT22;8858;52.308;20.994;2023-04-30T05:30:24;11.80;99.90
17483;DHT22;8858;52.308;20.994;2023-04-30T05:32:53;11.70;99.90
17483;DHT22;8858;52.308;20.994;2023-04-30T05:35:24;11.70;99.90
17483;DHT22;8858;52.308;20.994;2023-04-30T05:37:53;11.70;99.90
17483;DHT22;8858;52.308;20.994;2023-04-30T05:40:21;11.70;99.90
17483;DHT22;8858;52.308;20.994;2023-04-30T05:42:54;11.70;99.90
17483;DHT22;8858;52.308;20.994;2023-04-30T05:45:22;11.70;99.90
17483;DHT22;8858;52.308;20.994;2023-04-30T05:47:52;11.80;99.90
17483;DHT22;8858;52.308;20.994;2023-04-30T05:50:21;11.80;99.90
17483;DHT22;8858;52.308;20.994;2023-04-30T05:52:50;11.90;99.90
17483;DHT22;8858;52.308;20.994;2023-04-30T05:55:22;11.80;99.90
17483;DHT22;8858;52.308;20.994;2023-04-30T05:57:50;11.80;99.90
17483;DHT22;8858;52.308;20.994;2023-04-30T06:00:23;11.80;99.90
17483;DHT22;8858;52.308;20.994;2023-04-30T06:02:51;11.90;99.90
17483;DHT22;8858;52.308;20.994;2023-04-30T06:05:20;11.90;99.90
17483;DHT22;8858;52.308;20.994;2023-04-30T06:07:50;11.90;99.90
17483;DHT22;8858;52.308;20.994;2023-04-30T06:10:18;11.80;99.90
17483;DHT22;8858;52.308;20.994;2023-04-30T06:12:46;11.70;99.90
17483;DHT22;8858;52.308;20.994;2023-04-30T06:15:18;11.90;99.90
17483;DHT22;8858;52.308;20.994;2023-04-30T06:17:46;11.90;99.90
17483;DHT22;8858;52.308;20.994;2023-04-30T06:20:17;11.80;99.90
17483;DHT22;8858;52.308;20.994;2023-04-30T06:22:45;11.80;99.90
17483;DHT22;8858;52.308;20.994;2023-04-30T06:25:16;11.80;99.90
17483;DHT22;8858;52.308;20.994;2023-04-30T06:27:45;12.00;99.90
17483;DHT22;8858;52.308;20.994;2023-04-30T06:30:14;12.10;99.90
17483;DHT22;8858;52.308;20.994;2023-04-30T06:32:44;12.10;99.90
17483;DHT22;8858;52.308;20.994;2023-04-30T06:35:13;12.20;99.90
17483;DHT22;8858;52.308;20.994;2023-04-30T06:37:41;12.10;99.90
17483;DHT22;8858;52.308;20.994;2023-04-30T06:40:12;12.20;99.90
17483;DHT22;8858;52.308;20.994;2023-04-30T06:42:42;12.10;99.90
17483;DHT22;8858;52.308;20.994;2023-04-30T06:45:13;12.10;99.90
17483;DHT22;8858;52.308;20.994;2023-04-30T06:47:41;11.90;99.90
17483;DHT22;8858;52.308;20.994;2023-04-30T06:50:12;11.80;99.90
17483;DHT22;8858;52.308;20.994;2023-04-30T06:52:44;11.70;99.90
17483;DHT22;8858;52.308;20.994;2023-04-30T06:55:12;11.70;99.90
17483;DHT22;8858;52.308;20.994;2023-04-30T06:57:46;11.50;99.90
17483;DHT22;8858;52.308;20.994;2023-04-30T07:00:14;11.50;99.90
17483;DHT22;8858;52.308;20.994;2023-04-30T07:02:42;11.60;99.90
17483;DHT22;8858;52.308;20.994;2023-04-30T07:05:13;11.70;99.90
17483;DHT22;8858;52.308;20.994;2023-04-30T07:07:42;11.80;99.90
17483;DHT22;8858;52.308;20.994;2023-04-30T07:10:10;11.90;99.90
17483;DHT22;8858;52.308;20.994;2023-04-30T07:12:38;11.90;99.90
17483;DHT22;8858;52.308;20.994;2023-04-30T07:15:08;12.00;99.90
17483;DHT22;8858;52.308;20.994;2023-04-30T07:17:37;12.10;99.90
17483;DHT22;8858;52.308;20.994;2023-04-30T07:20:08;12.10;99.90
17483;DHT22;8858;52.308;20.994;2023-04-30T07:22:36;12.10;99.90
17483;DHT22;8858;52.308;20.994;2023-04-30T07:25:05;12.20;99.90
17483;DHT22;8858;52.308;20.994;2023-04-30T07:27:34;12.30;99.90
17483;DHT22;8858;52.308;20.994;2023-04-30T07:30:08;12.40;99.90
17483;DHT22;8858;52.308;20.994;2023-04-30T07:32:37;12.40;99.90
17483;DHT22;8858;52.308;20.994;2023-04-30T07:35:09;12.40;99.90
17483;DHT22;8858;52.308;20.994;2023-04-30T07:37:37;12.40;99.90
17483;DHT22;8858;52.308;20.994;2023-04-30T07:40:08;12.30;99.90
17483;DHT22;8858;52.308;20.994;2023-04-30T07:42:45;12.10;99.90
17483;DHT22;8858;52.308;20.994;2023-04-30T07:45:16;12.20;99.90
17483;DHT22;8858;52.308;20.994;2023-04-30T07:47:44;12.10;99.90
17483;DHT22;8858;52.308;20.994;2023-04-30T07:50:13;12.10;99.90
17483;DHT22;8858;52.308;20.994;2023-04-30T07:52:42;12.10;99.90
17483;DHT22;8858;52.308;20.994;2023-04-30T07:55:10;12.20;99.90
17483;DHT22;8858;52.308;20.994;2023-04-30T07:57:39;12.20;99.90
17483;DHT22;8858;52.308;20.994;2023-04-30T08:00:08;12.20;99.90
17483;DHT22;8858;52.308;20.994;2023-04-30T08:02:41;12.30;99.90
17483;DHT22;8858;52.308;20.994;2023-04-30T08:05:11;12.20;99.90
17483;DHT22;8858;52.308;20.994;2023-04-30T08:07:39;12.20;99.90
17483;DHT22;8858;52.308;20.994;2023-04-30T08:10:11;12.30;99.90
17483;DHT22;8858;52.308;20.994;2023-04-30T08:12:39;12.30;99.90
17483;DHT22;8858;52.308;20.994;2023-04-30T08:15:08;12.40;99.90
17483;DHT22;8858;52.308;20.994;2023-04-30T08:17:38;12.50;99.90
17483;DHT22;8858;52.308;20.994;2023-04-30T08:20:08;12.50;99.90
17483;DHT22;8858;52.308;20.994;2023-04-30T08:22:37;12.40;99.90
17483;DHT22;8858;52.308;20.994;2023-04-30T08:25:09;12.50;99.90
17483;DHT22;8858;52.308;20.994;2023-04-30T08:27:38;12.30;99.90
17483;DHT22;8858;52.308;20.994;2023-04-30T08:30:07;12.40;99.90
17483;DHT22;8858;52.308;20.994;2023-04-30T08:32:36;12.20;99.90
17483;DHT22;8858;52.308;20.994;2023-04-30T08:35:05;12.20;99.90
17483;DHT22;8858;52.308;20.994;2023-04-30T08:37:35;12.20;99.90
17483;DHT22;8858;52.308;20.994;2023-04-30T08:40:04;12.30;99.90
17483;DHT22;8858;52.308;20.994;2023-04-30T08:42:37;12.00;99.90
17483;DHT22;8858;52.308;20.994;2023-04-30T08:45:10;12.00;99.90
17483;DHT22;8858;52.308;20.994;2023-04-30T08:47:44;12.00;99.90
17483;DHT22;8858;52.308;20.994;2023-04-30T08:50:12;12.20;99.90
17483;DHT22;8858;52.308;20.994;2023-04-30T08:52:42;12.10;99.90
17483;DHT22;8858;52.308;20.994;2023-04-30T08:55:11;12.10;99.90
17483;DHT22;8858;52.308;20.994;2023-04-30T08:57:40;12.20;99.90
17483;DHT22;8858;52.308;20.994;2023-04-30T09:00:09;12.30;99.90
17483;DHT22;8858;52.308;20.994;2023-04-30T09:02:39;12.50;99.90
17483;DHT22;8858;52.308;20.994;2023-04-30T09:05:11;12.50;99.90
17483;DHT22;8858;52.308;20.994;2023-04-30T09:07:43;12.10;99.90
17483;DHT22;8858;52.308;20.994;2023-04-30T09:10:16;12.20;99.90
17483;DHT22;8858;52.308;20.994;2023-04-30T09:12:57;12.30;99.90
17483;DHT22;8858;52.308;20.994;2023-04-30T09:15:27;12.20;99.90
17483;DHT22;8858;52.308;20.994;2023-04-30T09:18:09;12.20;99.90
17483;DHT22;8858;52.308;20.994;2023-04-30T09:20:54;12.20;99.90
17483;DHT22;8858;52.308;20.994;2023-04-30T09:23:24;12.30;99.90
17483;DHT22;8858;52.308;20.994;2023-04-30T09:25:53;12.40;99.90
17483;DHT22;8858;52.308;20.994;2023-04-30T09:28:22;12.50;99.90
17483;DHT22;8858;52.308;20.994;2023-04-30T09:30:53;12.40;99.90
17483;DHT22;8858;52.308;20.994;2023-04-30T09:33:23;12.50;99.90
17483;DHT22;8858;52.308;20.994;2023-04-30T09:35:51;12.50;99.90
17483;DHT22;8858;52.308;20.994;2023-04-30T09:38:28;12.50;99.90
17483;DHT22;8858;52.308;20.994;2023-04-30T09:40:58;12.60;99.90
17483;DHT22;8858;52.308;20.994;2023-04-30T09:43:27;12.50;99.90
17483;DHT22;8858;52.308;20.994;2023-04-30T09:45:58;12.40;99.90
17483;DHT22;8858;52.308;20.994;2023-04-30T09:48:26;12.60;99.90
17483;DHT22;8858;52.308;20.994;2023-04-30T09:50:55;12.60;99.90
17483;DHT22;8858;52.308;20.994;2023-04-30T09:53:23;12.70;99.90
17483;DHT22;8858;52.308;20.994;2023-04-30T09:55:55;12.90;99.90
17483;DHT22;8858;52.308;20.994;2023-04-30T09:58:27;12.60;99.90
17483;DHT22;8858;52.308;20.994;2023-04-30T10:00:58;12.70;99.90
17483;DHT22;8858;52.308;20.994;2023-04-30T10:03:28;12.70;99.90
17483;DHT22;8858;52.308;20.994;2023-04-30T10:05:59;12.90;99.90
17483;DHT22;8858;52.308;20.994;2023-04-30T10:08:31;12.90;99.90
17483;DHT22;8858;52.308;20.994;2023-04-30T10:11:04;13.10;99.90
17483;DHT22;8858;52.308;20.994;2023-04-30T10:13:37;13.10;99.90
17483;DHT22;8858;52.308;20.994;2023-04-30T10:16:14;13.10;99.90
17483;DHT22;8858;52.308;20.994;2023-04-30T10:18:45;13.10;99.90
17483;DHT22;8858;52.308;20.994;2023-04-30T10:21:17;13.10;99.90
17483;DHT22;8858;52.308;20.994;2023-04-30T10:23:47;13.10;99.90
17483;DHT22;8858;52.308;20.994;2023-04-30T10:26:19;13.00;99.90
17483;DHT22;8858;52.308;20.994;2023-04-30T10:28:48;13.20;99.90
17483;DHT22;8858;52.308;20.994;2023-04-30T10:31:18;13.30;99.90
17483;DHT22;8858;52.308;20.994;2023-04-30T10:33:56;13.40;99.90
17483;DHT22;8858;52.308;20.994;2023-04-30T10:36:35;13.60;99.90
17483;DHT22;8858;52.308;20.994;2023-04-30T10:39:04;13.70;99.90
17483;DHT22;8858;52.308;20.994;2023-04-30T10:41:34;13.90;99.90
17483;DHT22;8858;52.308;20.994;2023-04-30T10:44:02;14.00;99.90
17483;DHT22;8858;52.308;20.994;2023-04-30T10:46:34;14.10;99.90
17483;DHT22;8858;52.308;20.994;2023-04-30T10:49:03;14.20;99.90
17483;DHT22;8858;52.308;20.994;2023-04-30T10:51:49;14.20;99.90
17483;DHT22;8858;52.308;20.994;2023-04-30T10:54:24;14.30;99.90
17483;DHT22;8858;52.308;20.994;2023-04-30T10:57:08;14.40;99.90
17483;DHT22;8858;52.308;20.994;2023-04-30T10:59:51;14.40;99.90
17483;DHT22;8858;52.308;20.994;2023-04-30T11:02:20;14.50;99.90
17483;DHT22;8858;52.308;20.994;2023-04-30T11:05:10;14.40;99.90
17483;DHT22;8858;52.308;20.994;2023-04-30T11:07:46;14.50;99.90
17483;DHT22;8858;52.308;20.994;2023-04-30T11:10:15;14.20;99.90
17483;DHT22;8858;52.308;20.994;2023-04-30T11:12:50;14.10;99.90
17483;DHT22;8858;52.308;20.994;2023-04-30T11:15:20;14.10;99.90
17483;DHT22;8858;52.308;20.994;2023-04-30T11:17:49;14.10;99.90
17483;DHT22;8858;52.308;20.994;2023-04-30T11:20:23;14.30;99.90
17483;DHT22;8858;52.308;20.994;2023-04-30T11:23:07;14.40;99.90
17483;DHT22;8858;52.308;20.994;2023-04-30T11:25:39;14.60;99.90
17483;DHT22;8858;52.308;20.994;2023-04-30T11:28:13;14.40;99.90
17483;DHT22;8858;52.308;20.994;2023-04-30T11:30:51;14.30;99.90
17483;DHT22;8858;52.308;20.994;2023-04-30T11:33:20;14.30;99.90
17483;DHT22;8858;52.308;20.994;2023-04-30T11:35:49;14.10;99.90
17483;DHT22;8858;52.308;20.994;2023-04-30T11:38:20;14.00;99.90
17483;DHT22;8858;52.308;20.994;2023-04-30T11:40:50;13.90;99.90
17483;DHT22;8858;52.308;20.994;2023-04-30T11:43:23;14.10;99.90
17483;DHT22;8858;52.308;20.994;2023-04-30T11:46:06;14.30;99.90
17483;DHT22;8858;52.308;20.994;2023-04-30T11:48:38;14.10;99.90
17483;DHT22;8858;52.308;20.994;2023-04-30T11:51:17;14.20;99.90
17483;DHT22;8858;52.308;20.994;2023-04-30T11:53:46;14.40;99.90
17483;DHT22;8858;52.308;20.994;2023-04-30T11:56:17;14.40;99.90
17483;DHT22;8858;52.308;20.994;2023-04-30T11:58:51;14.50;99.90
17483;DHT22;8858;52.308;20.994;2023-04-30T12:01:21;14.40;99.90
17483;DHT22;8858;52.308;20.994;2023-04-30T12:03:50;14.50;99.90
17483;DHT22;8858;52.308;20.994;2023-04-30T12:06:23;14.70;99.90
17483;DHT22;8858;52.308;20.994;2023-04-30T12:08:52;14.80;99.90
17483;DHT22;8858;52.308;20.994;2023-04-30T12:11:22;14.90;99.90
17483;DHT22;8858;52.308;20.994;2023-04-30T12:13:56;14.80;99.90
17483;DHT22;8858;52.308;20.994;2023-04-30T12:16:26;14.90;99.90
17483;DHT22;8858;52.308;20.994;2023-04-30T12:18:56;15.20;99.90
17483;DHT22;8858;52.308;20.994;2023-04-30T12:21:24;15.00;99.90
17483;DHT22;8858;52.308;20.994;2023-04-30T12:23:56;15.10;99.90
17483;DHT22;8858;52.308;20.994;2023-04-30T12:26:33;15.40;99.90
17483;DHT22;8858;52.308;20.994;2023-04-30T12:29:08;15.50;99.90
17483;DHT22;8858;52.308;20.994;2023-04-30T12:31:42;15.60;99.90
17483;DHT22;8858;52.308;20.994;2023-04-30T12:34:12;15.20;99.90
17483;DHT22;8858;52.308;20.994;2023-04-30T12:36:41;15.20;99.90
17483;DHT22;8858;52.308;20.994;2023-04-30T12:39:11;15.40;99.90
17483;DHT22;8858;52.308;20.994;2023-04-30T12:41:45;15.60;99.90
17483;DHT22;8858;52.308;20.994;2023-04-30T12:44:17;15.80;99.90
17483;DHT22;8858;52.308;20.994;2023-04-30T12:46:47;15.90;99.90
17483;DHT22;8858;52.308;20.994;2023-04-30T12:49:26;15.70;99.90
17483;DHT22;8858;52.308;20.994;2023-04-30T12:51:58;15.50;99.90
17483;DHT22;8858;52.308;20.994;2023-04-30T12:54:29;15.50;99.90
17483;DHT22;8858;52.308;20.994;2023-04-30T12:57:03;15.80;99.90
17483;DHT22;8858;52.308;20.994;2023-04-30T12:59:35;15.70;99.90
17483;DHT22;8858;52.308;20.994;2023-04-30T13:02:10;16.00;99.90
17483;DHT22;8858;52.308;20.994;2023-04-30T13:04:39;15.90;99.90
17483;DHT22;8858;52.308;20.994;2023-04-30T13:07:08;15.90;99.90
17483;DHT22;8858;52.308;20.994;2023-04-30T13:09:37;16.40;99.90
17483;DHT22;8858;52.308;20.994;2023-04-30T13:12:06;16.90;99.90
17483;DHT22;8858;52.308;20.994;2023-04-30T13:14:35;17.40;99.90
17483;DHT22;8858;52.308;20.994;2023-04-30T13:17:04;16.40;99.90
17483;DHT22;8858;52.308;20.994;2023-04-30T13:19:33;16.80;99.90
17483;DHT22;8858;52.308;20.994;2023-04-30T13:22:05;16.80;99.90
17483;DHT22;8858;52.308;20.994;2023-04-30T13:24:35;16.90;99.90
17483;DHT22;8858;52.308;20.994;2023-04-30T13:27:03;17.50;99.90
17483;DHT22;8858;52.308;20.994;2023-04-30T13:29:31;17.90;99.20
17483;DHT22;8858;52.308;20.994;2023-04-30T13:32:01;17.80;99.10
17483;DHT22;8858;52.308;20.994;2023-04-30T13:34:32;18.70;99.30
17483;DHT22;8858;52.308;20.994;2023-04-30T13:37:00;19.60;98.90
17483;DHT22;8858;52.308;20.994;2023-04-30T13:39:29;19.90;97.70
17483;DHT22;8858;52.308;20.994;2023-04-30T13:41:57;19.50;97.30
17483;DHT22;8858;52.308;20.994;2023-04-30T13:44:26;18.90;96.50
17483;DHT22;8858;52.308;20.994;2023-04-30T13:46:54;18.20;97.30
17483;DHT22;8858;52.308;20.994;2023-04-30T13:49:24;18.50;97.60
17483;DHT22;8858;52.308;20.994;2023-04-30T13:51:52;18.40;97.50
17483;DHT22;8858;52.308;20.994;2023-04-30T13:54:24;17.80;96.90
17483;DHT22;8858;52.308;20.994;2023-04-30T13:56:52;16.90;98.10
17483;DHT22;8858;52.308;20.994;2023-04-30T13:59:22;17.80;98.40
17483;DHT22;8858;52.308;20.994;2023-04-30T14:01:50;18.50;97.70
17483;DHT22;8858;52.308;20.994;2023-04-30T14:04:18;19.30;96.80
17483;DHT22;8858;52.308;20.994;2023-04-30T14:06:51;18.60;96.30
17483;DHT22;8858;52.308;20.994;2023-04-30T14:09:24;18.90;95.50
17483;DHT22;8858;52.308;20.994;2023-04-30T14:11:53;18.30;95.40
17483;DHT22;8858;52.308;20.994;2023-04-30T14:14:21;17.20;96.30
17483;DHT22;8858;52.308;20.994;2023-04-30T14:16:50;18.40;96.20
17483;DHT22;8858;52.308;20.994;2023-04-30T14:19:18;17.70;95.00
17483;DHT22;8858;52.308;20.994;2023-04-30T14:21:47;18.40;95.20
17483;DHT22;8858;52.308;20.994;2023-04-30T14:24:19;18.80;94.40
17483;DHT22;8858;52.308;20.994;2023-04-30T14:26:47;19.00;94.20
17483;DHT22;8858;52.308;20.994;2023-04-30T14:29:15;18.10;94.50
17483;DHT22;8858;52.308;20.994;2023-04-30T14:31:48;18.00;94.40
17483;DHT22;8858;52.308;20.994;2023-04-30T14:34:16;18.40;94.00
17483;DHT22;8858;52.308;20.994;2023-04-30T14:36:47;18.40;94.20
17483;DHT22;8858;52.308;20.994;2023-04-30T14:39:15;18.30;94.10
17483;DHT22;8858;52.308;20.994;2023-04-30T14:41:45;18.10;94.40
17483;DHT22;8858;52.308;20.994;2023-04-30T14:44:14;18.00;94.80
17483;DHT22;8858;52.308;20.994;2023-04-30T14:46:43;18.50;93.20
17483;DHT22;8858;52.308;20.994;2023-04-30T14:49:14;17.90;93.70
17483;DHT22;8858;52.308;20.994;2023-04-30T14:51:43;18.60;94.40
17483;DHT22;8858;52.308;20.994;2023-04-30T14:54:11;20.50;93.30
17483;DHT22;8858;52.308;20.994;2023-04-30T14:56:39;19.60;92.30
17483;DHT22;8858;52.308;20.994;2023-04-30T14:59:09;19.50;92.70
17483;DHT22;8858;52.308;20.994;2023-04-30T15:01:41;20.20;92.50
17483;DHT22;8858;52.308;20.994;2023-04-30T15:04:10;19.80;91.00
17483;DHT22;8858;52.308;20.994;2023-04-30T15:06:38;18.50;91.90
17483;DHT22;8858;52.308;20.994;2023-04-30T15:09:06;19.20;92.10
17483;DHT22;8858;52.308;20.994;2023-04-30T15:11:35;19.20;91.80
17483;DHT22;8858;52.308;20.994;2023-04-30T15:14:03;19.70;92.10
17483;DHT22;8858;52.308;20.994;2023-04-30T15:16:33;19.50;91.60
17483;DHT22;8858;52.308;20.994;2023-04-30T15:19:01;18.60;91.80
17483;DHT22;8858;52.308;20.994;2023-04-30T15:21:30;18.40;93.00
17483;DHT22;8858;52.308;20.994;2023-04-30T15:23:59;19.20;92.50
17483;DHT22;8858;52.308;20.994;2023-04-30T15:26:28;19.60;91.40
17483;DHT22;8858;52.308;20.994;2023-04-30T15:28:58;20.40;90.10
17483;DHT22;8858;52.308;20.994;2023-04-30T15:31:26;21.40;87.60
17483;DHT22;8858;52.308;20.994;2023-04-30T15:34:01;21.60;85.60
17483;DHT22;8858;52.308;20.994;2023-04-30T15:36:30;22.10;83.70
17483;DHT22;8858;52.308;20.994;2023-04-30T15:38:59;22.10;85.00
17483;DHT22;8858;52.308;20.994;2023-04-30T15:41:27;21.70;85.80
17483;DHT22;8858;52.308;20.994;2023-04-30T15:43:55;21.50;86.10
17483;DHT22;8858;52.308;20.994;2023-04-30T15:46:27;21.10;84.90
17483;DHT22;8858;52.308;20.994;2023-04-30T15:48:56;21.00;87.00
17483;DHT22;8858;52.308;20.994;2023-04-30T15:51:26;21.30;86.60